sensor_id;sensor_type;location;lat;lon;timestamp;temperature;humidity
51902;DHT22;37929;53.218;6.548;2023-08-07T00:00:36;15.40;99.90
51902;DHT22;37929;53.218;6.548;2023-08-07T00:03:02;15.40;99.90
51902;DHT22;37929;53.218;6.548;2023-08-07T00:05:28;15.40;99.90
51902;DHT22;37929;53.218;6.548;2023-08-07T00:07:54;15.40;99.90
51902;DHT22;37929;53.218;6.548;2023-08-07T00:10:20;15.40;99.90
51902;DHT22;37929;53.218;6.548;2023-08-07T00:12:45;15.40;99.90
51902;DHT22;37929;53.218;6.548;2023-08-07T00:15:11;15.40;99.90
51902;DHT22;37929;53.218;6.548;2023-08-07T00:17:37;15.40;99.90
51902;DHT22;37929;53.218;6.548;2023-08-07T00:20:04;15.40;99.90
51902;DHT22;37929;53.218;6.548;2023-08-07T00:22:29;15.40;99.90
51902;DHT22;37929;53.218;6.548;2023-08-07T00:24:55;15.40;99.90
51902;DHT22;37929;53.218;6.548;2023-08-07T00:27:21;15.40;99.90
51902;DHT22;37929;53.218;6.548;2023-08-07T00:29:47;15.40;99.90
51902;DHT22;37929;53.218;6.548;2023-08-07T00:32:13;15.40;99.90
51902;DHT22;37929;53.218;6.548;2023-08-07T00:34:39;15.40;99.90
51902;DHT22;37929;53.218;6.548;2023-08-07T00:37:05;15.40;99.90
51902;DHT22;37929;53.218;6.548;2023-08-07T00:39:30;15.40;99.90
51902;DHT22;37929;53.218;6.548;2023-08-07T00:41:56;15.40;99.90
51902;DHT22;37929;53.218;6.548;2023-08-07T00:44:22;15.40;99.90
51902;DHT22;37929;53.218;6.548;2023-08-07T00:46:49;15.40;99.90
51902;DHT22;37929;53.218;6.548;2023-08-07T00:49:15;15.40;99.90
51902;DHT22;37929;53.218;6.548;2023-08-07T00:51:42;15.40;99.90
51902;DHT22;37929;53.218;6.548;2023-08-07T00:54:10;15.20;99.90
51902;DHT22;37929;53.218;6.548;2023-08-07T00:56:40;15.40;99.90
51902;DHT22;37929;53.218;6.548;2023-08-07T00:59:06;15.40;99.90
51902;DHT22;37929;53.218;6.548;2023-08-07T01:01:32;15.30;99.90
51902;DHT22;37929;53.218;6.548;2023-08-07T01:03:58;15.30;99.90
51902;DHT22;37929;53.218;6.548;2023-08-07T01:06:24;15.30;99.90
51902;DHT22;37929;53.218;6.548;2023-08-07T01:08:50;15.20;99.90
51902;DHT22;37929;53.218;6.548;2023-08-07T01:11:39;15.20;99.90
51902;DHT22;37929;53.218;6.548;2023-08-07T01:17:11;15.20;99.90
51902;DHT22;37929;53.218;6.548;2023-08-07T01:19:40;15.20;99.90
51902;DHT22;37929;53.218;6.548;2023-08-07T01:22:11;15.10;99.90
51902;DHT22;37929;53.218;6.548;2023-08-07T01:24:38;15.10;99.90
51902;DHT22;37929;53.218;6.548;2023-08-07T01:29:54;15.10;99.90
51902;DHT22;37929;53.218;6.548;2023-08-07T01:35:31;15.00;99.90
51902;DHT22;37929;53.218;6.548;2023-08-07T01:37:58;15.00;99.90
51902;DHT22;37929;53.218;6.548;2023-08-07T01:40:25;14.90;99.90
51902;DHT22;37929;53.218;6.548;2023-08-07T01:42:52;14.80;99.90
51902;DHT22;37929;53.218;6.548;2023-08-07T01:45:26;14.80;99.90
51902;DHT22;37929;53.218;6.548;2023-08-07T01:47:52;14.80;99.90
51902;DHT22;37929;53.218;6.548;2023-08-07T01:50:22;14.80;99.90
51902;DHT22;37929;53.218;6.548;2023-08-07T01:52:48;14.80;99.90
51902;DHT22;37929;53.218;6.548;2023-08-07T01:55:18;14.70;99.90
51902;DHT22;37929;53.218;6.548;2023-08-07T01:57:44;14.70;99.90
51902;DHT22;37929;53.218;6.548;2023-08-07T02:00:10;14.70;99.90
51902;DHT22;37929;53.218;6.548;2023-08-07T02:02:37;14.70;99.90
51902;DHT22;37929;53.218;6.548;2023-08-07T02:05:04;14.70;99.90
51902;DHT22;37929;53.218;6.548;2023-08-07T02:07:30;14.70;99.90
51902;DHT22;37929;53.218;6.548;2023-08-07T02:09:56;14.70;99.90
51902;DHT22;37929;53.218;6.548;2023-08-07T02:12:22;14.70;99.90
51902;DHT22;37929;53.218;6.548;2023-08-07T02:14:48;14.70;99.90
51902;DHT22;37929;53.218;6.548;2023-08-07T02:17:14;14.70;99.90
51902;DHT22;37929;53.218;6.548;2023-08-07T02:19:40;14.70;99.90
51902;DHT22;37929;53.218;6.548;2023-08-07T02:22:05;14.70;99.90
51902;DHT22;37929;53.218;6.548;2023-08-07T02:24:31;14.70;99.90
51902;DHT22;37929;53.218;6.548;2023-08-07T02:26:57;14.70;99.90
51902;DHT22;37929;53.218;6.548;2023-08-07T02:29:23;14.70;99.90
51902;DHT22;37929;53.218;6.548;2023-08-07T02:31:49;14.70;99.90
51902;DHT22;37929;53.218;6.548;2023-08-07T02:34:15;14.70;99.90
51902;DHT22;37929;53.218;6.548;2023-08-07T02:36:42;14.70;99.90
51902;DHT22;37929;53.218;6.548;2023-08-07T02:39:07;14.60;99.90
51902;DHT22;37929;53.218;6.548;2023-08-07T02:41:33;14.60;99.90
51902;DHT22;37929;53.218;6.548;2023-08-07T02:43:59;14.60;99.90
51902;DHT22;37929;53.218;6.548;2023-08-07T02:46:25;14.60;99.90
51902;DHT22;37929;53.218;6.548;2023-08-07T02:48:50;14.60;99.90
51902;DHT22;37929;53.218;6.548;2023-08-07T02:51:16;14.60;99.90
51902;DHT22;37929;53.218;6.548;2023-08-07T02:53:42;14.60;99.90
51902;DHT22;37929;53.218;6.548;2023-08-07T02:56:08;14.70;99.90
51902;DHT22;37929;53.218;6.548;2023-08-07T02:58:34;14.70;99.90
51902;DHT22;37929;53.218;6.548;2023-08-07T03:01:04;14.60;99.90
51902;DHT22;37929;53.218;6.548;2023-08-07T03:03:31;14.70;99.90
51902;DHT22;37929;53.218;6.548;2023-08-07T03:05:57;14.60;99.90
51902;DHT22;37929;53.218;6.548;2023-08-07T03:08:23;14.70;99.90
51902;DHT22;37929;53.218;6.548;2023-08-07T03:10:56;14.70;99.90
51902;DHT22;37929;53.218;6.548;2023-08-07T03:13:23;14.70;99.90
51902;DHT22;37929;53.218;6.548;2023-08-07T03:15:49;14.70;99.90
51902;DHT22;37929;53.218;6.548;2023-08-07T03:18:18;14.70;99.90
51902;DHT22;37929;53.218;6.548;2023-08-07T03:20:44;14.70;99.90
51902;DHT22;37929;53.218;6.548;2023-08-07T03:23:10;14.70;99.90
51902;DHT22;37929;53.218;6.548;2023-08-07T03:25:36;14.70;99.90
51902;DHT22;37929;53.218;6.548;2023-08-07T03:28:02;14.70;99.90
51902;DHT22;37929;53.218;6.548;2023-08-07T03:30:28;14.70;99.90
51902;DHT22;37929;53.218;6.548;2023-08-07T03:32:54;14.80;99.90
51902;DHT22;37929;53.218;6.548;2023-08-07T03:35:20;14.70;99.90
51902;DHT22;37929;53.218;6.548;2023-08-07T03:37:46;14.70;99.90
51902;DHT22;37929;53.218;6.548;2023-08-07T03:40:11;14.80;99.90
51902;DHT22;37929;53.218;6.548;2023-08-07T03:42:37;14.70;99.90
51902;DHT22;37929;53.218;6.548;2023-08-07T03:45:03;14.80;99.90
51902;DHT22;37929;53.218;6.548;2023-08-07T03:47:29;14.80;99.90
51902;DHT22;37929;53.218;6.548;2023-08-07T03:49:55;14.90;99.90
51902;DHT22;37929;53.218;6.548;2023-08-07T03:52:21;14.90;99.90
51902;DHT22;37929;53.218;6.548;2023-08-07T03:54:46;15.00;99.90
51902;DHT22;37929;53.218;6.548;2023-08-07T03:57:12;15.00;99.90
51902;DHT22;37929;53.218;6.548;2023-08-07T03:59:38;14.90;99.90
51902;DHT22;37929;53.218;6.548;2023-08-07T04:02:04;15.00;99.90
51902;DHT22;37929;53.218;6.548;2023-08-07T04:04:30;15.00;99.90
51902;DHT22;37929;53.218;6.548;2023-08-07T04:06:55;15.00;99.90
51902;DHT22;37929;53.218;6.548;2023-08-07T04:09:21;15.00;99.90
51902;DHT22;37929;53.218;6.548;2023-08-07T04:11:47;15.00;99.90
51902;DHT22;37929;53.218;6.548;2023-08-07T04:14:12;15.10;99.90
51902;DHT22;37929;53.218;6.548;2023-08-07T04:16:38;15.10;99.90
51902;DHT22;37929;53.218;6.548;2023-08-07T04:19:04;15.10;99.90
51902;DHT22;37929;53.218;6.548;2023-08-07T04:21:32;15.10;99.90
51902;DHT22;37929;53.218;6.548;2023-08-07T04:23:58;15.10;99.90
51902;DHT22;37929;53.218;6.548;2023-08-07T04:26:26;15.10;99.90
51902;DHT22;37929;53.218;6.548;2023-08-07T04:28:52;15.10;99.90
51902;DHT22;37929;53.218;6.548;2023-08-07T04:31:17;15.10;99.90
51902;DHT22;37929;53.218;6.548;2023-08-07T04:33:43;15.10;99.90
51902;DHT22;37929;53.218;6.548;2023-08-07T04:36:09;15.10;99.90
51902;DHT22;37929;53.218;6.548;2023-08-07T04:38:35;15.10;99.90
51902;DHT22;37929;53.218;6.548;2023-08-07T04:41:01;15.00;99.90
51902;DHT22;37929;53.218;6.548;2023-08-07T04:43:26;15.00;99.90
51902;DHT22;37929;53.218;6.548;2023-08-07T04:45:53;15.00;99.90
51902;DHT22;37929;53.218;6.548;2023-08-07T04:48:19;15.00;99.90
51902;DHT22;37929;53.218;6.548;2023-08-07T04:50:46;15.00;99.90
51902;DHT22;37929;53.218;6.548;2023-08-07T04:53:12;15.00;99.90
51902;DHT22;37929;53.218;6.548;2023-08-07T04:55:38;15.00;99.90
51902;DHT22;37929;53.218;6.548;2023-08-07T04:58:04;15.00;99.90
51902;DHT22;37929;53.218;6.548;2023-08-07T05:00:30;15.00;99.90
51902;DHT22;37929;53.218;6.548;2023-08-07T05:02:56;15.00;99.90
51902;DHT22;37929;53.218;6.548;2023-08-07T05:05:22;15.00;99.90
51902;DHT22;37929;53.218;6.548;2023-08-07T05:07:49;15.00;99.90
51902;DHT22;37929;53.218;6.548;2023-08-07T05:10:15;15.00;99.90
51902;DHT22;37929;53.218;6.548;2023-08-07T05:12:40;15.00;99.90
51902;DHT22;37929;53.218;6.548;2023-08-07T05:15:07;15.00;99.90
51902;DHT22;37929;53.218;6.548;2023-08-07T05:17:32;15.00;99.90
51902;DHT22;37929;53.218;6.548;2023-08-07T05:19:58;15.10;99.90
51902;DHT22;37929;53.218;6.548;2023-08-07T05:22:24;15.10;99.90
51902;DHT22;37929;53.218;6.548;2023-08-07T05:24:50;15.10;99.90
51902;DHT22;37929;53.218;6.548;2023-08-07T05:27:16;15.10;99.90
51902;DHT22;37929;53.218;6.548;2023-08-07T05:29:42;15.10;99.90
51902;DHT22;37929;53.218;6.548;2023-08-07T05:32:14;15.10;99.90
51902;DHT22;37929;53.218;6.548;2023-08-07T05:34:41;15.20;99.90
51902;DHT22;37929;53.218;6.548;2023-08-07T05:37:07;15.20;99.90
51902;DHT22;37929;53.218;6.548;2023-08-07T05:39:34;15.20;99.90
51902;DHT22;37929;53.218;6.548;2023-08-07T05:42:00;15.20;99.90
51902;DHT22;37929;53.218;6.548;2023-08-07T05:44:27;15.20;99.90
51902;DHT22;37929;53.218;6.548;2023-08-07T05:46:52;15.20;99.90
51902;DHT22;37929;53.218;6.548;2023-08-07T05:49:19;15.30;99.90
51902;DHT22;37929;53.218;6.548;2023-08-07T05:51:45;15.30;99.90
51902;DHT22;37929;53.218;6.548;2023-08-07T05:54:11;15.30;99.90
51902;DHT22;37929;53.218;6.548;2023-08-07T05:56:38;15.30;99.90
51902;DHT22;37929;53.218;6.548;2023-08-07T05:59:04;15.40;99.90
51902;DHT22;37929;53.218;6.548;2023-08-07T06:01:30;15.30;99.90
51902;DHT22;37929;53.218;6.548;2023-08-07T06:03:58;15.30;99.90
51902;DHT22;37929;53.218;6.548;2023-08-07T06:06:27;15.40;99.90
51902;DHT22;37929;53.218;6.548;2023-08-07T06:08:55;15.40;99.90
51902;DHT22;37929;53.218;6.548;2023-08-07T06:11:21;15.40;99.90
51902;DHT22;37929;53.218;6.548;2023-08-07T06:13:48;15.40;99.90
51902;DHT22;37929;53.218;6.548;2023-08-07T06:16:14;15.40;99.90
51902;DHT22;37929;53.218;6.548;2023-08-07T06:18:40;15.40;99.90
51902;DHT22;37929;53.218;6.548;2023-08-07T06:21:06;15.40;99.90
51902;DHT22;37929;53.218;6.548;2023-08-07T06:23:33;15.50;99.90
51902;DHT22;37929;53.218;6.548;2023-08-07T06:25:59;15.40;99.90
51902;DHT22;37929;53.218;6.548;2023-08-07T06:28:33;15.50;99.90
51902;DHT22;37929;53.218;6.548;2023-08-07T06:31:10;15.50;99.90
51902;DHT22;37929;53.218;6.548;2023-08-07T06:33:36;15.50;99.90
51902;DHT22;37929;53.218;6.548;2023-08-07T06:36:03;15.50;99.90
51902;DHT22;37929;53.218;6.548;2023-08-07T06:38:29;15.50;99.90
51902;DHT22;37929;53.218;6.548;2023-08-07T06:40:56;15.50;99.90
51902;DHT22;37929;53.218;6.548;2023-08-07T06:43:21;15.60;99.90
51902;DHT22;37929;53.218;6.548;2023-08-07T06:45:51;15.60;99.90
51902;DHT22;37929;53.218;6.548;2023-08-07T06:48:18;15.50;99.90
51902;DHT22;37929;53.218;6.548;2023-08-07T06:50:44;15.50;99.90
51902;DHT22;37929;53.218;6.548;2023-08-07T06:53:09;15.40;99.90
51902;DHT22;37929;53.218;6.548;2023-08-07T06:55:35;15.40;99.90
51902;DHT22;37929;53.218;6.548;2023-08-07T06:58:01;15.40;99.90
51902;DHT22;37929;53.218;6.548;2023-08-07T07:00:27;15.40;99.90
51902;DHT22;37929;53.218;6.548;2023-08-07T07:02:52;15.40;99.90
51902;DHT22;37929;53.218;6.548;2023-08-07T07:05:18;15.40;99.90
51902;DHT22;37929;53.218;6.548;2023-08-07T07:07:47;15.30;99.90
51902;DHT22;37929;53.218;6.548;2023-08-07T07:10:13;15.30;99.90
51902;DHT22;37929;53.218;6.548;2023-08-07T07:12:38;15.20;99.90
51902;DHT22;37929;53.218;6.548;2023-08-07T07:15:04;15.00;99.90
51902;DHT22;37929;53.218;6.548;2023-08-07T07:17:30;15.00;99.90
51902;DHT22;37929;53.218;6.548;2023-08-07T07:19:56;14.90;99.90
51902;DHT22;37929;53.218;6.548;2023-08-07T07:22:22;14.80;99.90
51902;DHT22;37929;53.218;6.548;2023-08-07T07:24:48;14.80;99.90
51902;DHT22;37929;53.218;6.548;2023-08-07T07:27:14;14.70;99.90
51902;DHT22;37929;53.218;6.548;2023-08-07T07:29:40;14.80;99.90
51902;DHT22;37929;53.218;6.548;2023-08-07T07:32:06;14.80;99.90
51902;DHT22;37929;53.218;6.548;2023-08-07T07:34:32;15.00;99.90
51902;DHT22;37929;53.218;6.548;2023-08-07T07:36:58;14.80;99.90
51902;DHT22;37929;53.218;6.548;2023-08-07T07:39:24;14.80;99.90
51902;DHT22;37929;53.218;6.548;2023-08-07T07:41:50;14.90;99.90
51902;DHT22;37929;53.218;6.548;2023-08-07T07:44:16;14.90;99.90
51902;DHT22;37929;53.218;6.548;2023-08-07T07:46:41;14.90;99.90
51902;DHT22;37929;53.218;6.548;2023-08-07T07:49:07;15.00;99.90
51902;DHT22;37929;53.218;6.548;2023-08-07T07:51:33;15.10;99.90
51902;DHT22;37929;53.218;6.548;2023-08-07T07:54:01;15.20;99.90
51902;DHT22;37929;53.218;6.548;2023-08-07T07:56:26;15.20;99.90
51902;DHT22;37929;53.218;6.548;2023-08-07T07:58:52;15.30;99.90
51902;DHT22;37929;53.218;6.548;2023-08-07T08:01:18;15.30;99.90
51902;DHT22;37929;53.218;6.548;2023-08-07T08:03:44;15.20;99.90
51902;DHT22;37929;53.218;6.548;2023-08-07T08:06:12;15.10;99.90
51902;DHT22;37929;53.218;6.548;2023-08-07T08:08:39;15.00;99.90
51902;DHT22;37929;53.218;6.548;2023-08-07T08:11:05;14.90;99.90
51902;DHT22;37929;53.218;6.548;2023-08-07T08:13:30;14.90;99.90
51902;DHT22;37929;53.218;6.548;2023-08-07T08:15:56;14.80;99.90
51902;DHT22;37929;53.218;6.548;2023-08-07T08:18:22;14.80;99.90
51902;DHT22;37929;53.218;6.548;2023-08-07T08:20:48;14.80;99.90
51902;DHT22;37929;53.218;6.548;2023-08-07T08:23:14;14.80;99.90
51902;DHT22;37929;53.218;6.548;2023-08-07T08:25:40;14.80;99.90
51902;DHT22;37929;53.218;6.548;2023-08-07T08:28:05;14.70;99.90
51902;DHT22;37929;53.218;6.548;2023-08-07T08:30:31;14.80;99.90
51902;DHT22;37929;53.218;6.548;2023-08-07T08:32:57;14.80;99.90
51902;DHT22;37929;53.218;6.548;2023-08-07T08:35:23;14.90;99.90
51902;DHT22;37929;53.218;6.548;2023-08-07T08:37:49;15.00;99.90
51902;DHT22;37929;53.218;6.548;2023-08-07T08:40:15;14.90;99.90
51902;DHT22;37929;53.218;6.548;2023-08-07T08:42:46;15.20;99.90
51902;DHT22;37929;53.218;6.548;2023-08-07T08:45:15;15.30;99.90
51902;DHT22;37929;53.218;6.548;2023-08-07T08:47:42;15.40;99.90
51902;DHT22;37929;53.218;6.548;2023-08-07T08:50:13;15.50;99.90
51902;DHT22;37929;53.218;6.548;2023-08-07T08:52:44;15.60;99.90
51902;DHT22;37929;53.218;6.548;2023-08-07T08:55:11;15.80;99.90
51902;DHT22;37929;53.218;6.548;2023-08-07T08:57:38;15.80;99.90
51902;DHT22;37929;53.218;6.548;2023-08-07T09:00:06;16.00;99.90
51902;DHT22;37929;53.218;6.548;2023-08-07T09:02:51;16.00;99.90
51902;DHT22;37929;53.218;6.548;2023-08-07T09:05:20;16.10;99.90
51902;DHT22;37929;53.218;6.548;2023-08-07T09:07:49;16.20;99.90
51902;DHT22;37929;53.218;6.548;2023-08-07T09:10:16;16.30;99.90
51902;DHT22;37929;53.218;6.548;2023-08-07T09:13:00;16.30;99.90
51902;DHT22;37929;53.218;6.548;2023-08-07T09:15:30;16.40;99.90
51902;DHT22;37929;53.218;6.548;2023-08-07T09:17:57;16.40;99.90
51902;DHT22;37929;53.218;6.548;2023-08-07T09:20:25;16.50;99.90
51902;DHT22;37929;53.218;6.548;2023-08-07T09:22:51;16.50;99.90
51902;DHT22;37929;53.218;6.548;2023-08-07T09:25:33;16.60;99.90
51902;DHT22;37929;53.218;6.548;2023-08-07T09:28:04;16.60;99.90
51902;DHT22;37929;53.218;6.548;2023-08-07T09:30:30;16.70;99.90
51902;DHT22;37929;53.218;6.548;2023-08-07T09:32:58;16.60;99.90
51902;DHT22;37929;53.218;6.548;2023-08-07T09:35:24;16.60;99.90
51902;DHT22;37929;53.218;6.548;2023-08-07T09:37:50;16.60;99.90
51902;DHT22;37929;53.218;6.548;2023-08-07T09:40:17;16.60;99.90
51902;DHT22;37929;53.218;6.548;2023-08-07T09:42:43;16.60;99.90
51902;DHT22;37929;53.218;6.548;2023-08-07T09:45:29;16.60;99.90
51902;DHT22;37929;53.218;6.548;2023-08-07T09:48:06;16.50;99.90
51902;DHT22;37929;53.218;6.548;2023-08-07T09:50:32;16.60;99.90
51902;DHT22;37929;53.218;6.548;2023-08-07T09:53:01;16.60;99.90
51902;DHT22;37929;53.218;6.548;2023-08-07T09:55:36;16.70;99.90
51902;DHT22;37929;53.218;6.548;2023-08-07T09:58:02;16.70;99.90
51902;DHT22;37929;53.218;6.548;2023-08-07T10:00:47;16.70;99.90
51902;DHT22;37929;53.218;6.548;2023-08-07T10:03:14;16.70;99.90
51902;DHT22;37929;53.218;6.548;2023-08-07T10:05:43;16.60;99.90
51902;DHT22;37929;53.218;6.548;2023-08-07T10:08:10;16.60;99.90
51902;DHT22;37929;53.218;6.548;2023-08-07T10:10:40;16.50;99.90
51902;DHT22;37929;53.218;6.548;2023-08-07T10:13:09;16.40;99.90
51902;DHT22;37929;53.218;6.548;2023-08-07T10:15:38;16.50;99.90
51902;DHT22;37929;53.218;6.548;2023-08-07T10:18:06;16.50;99.90
51902;DHT22;37929;53.218;6.548;2023-08-07T10:20:32;16.60;99.90
51902;DHT22;37929;53.218;6.548;2023-08-07T10:23:09;16.50;99.90
51902;DHT22;37929;53.218;6.548;2023-08-07T10:25:41;16.60;99.90
51902;DHT22;37929;53.218;6.548;2023-08-07T10:28:09;16.60;99.90
51902;DHT22;37929;53.218;6.548;2023-08-07T10:30:39;16.60;99.90
51902;DHT22;37929;53.218;6.548;2023-08-07T10:33:08;16.70;99.90
51902;DHT22;37929;53.218;6.548;2023-08-07T10:35:52;16.70;99.90
51902;DHT22;37929;53.218;6.548;2023-08-07T10:38:20;16.70;99.90
51902;DHT22;37929;53.218;6.548;2023-08-07T10:41:07;16.80;99.90
51902;DHT22;37929;53.218;6.548;2023-08-07T10:43:44;16.80;99.90
51902;DHT22;37929;53.218;6.548;2023-08-07T10:46:15;16.80;99.90
51902;DHT22;37929;53.218;6.548;2023-08-07T10:48:54;16.80;99.90
51902;DHT22;37929;53.218;6.548;2023-08-07T10:51:20;16.80;99.90
51902;DHT22;37929;53.218;6.548;2023-08-07T10:53:49;16.90;99.90
51902;DHT22;37929;53.218;6.548;2023-08-07T10:56:17;16.90;99.90
51902;DHT22;37929;53.218;6.548;2023-08-07T10:58:49;17.00;99.90
51902;DHT22;37929;53.218;6.548;2023-08-07T11:03:57;17.10;99.90
51902;DHT22;37929;53.218;6.548;2023-08-07T11:06:24;17.20;99.90
51902;DHT22;37929;53.218;6.548;2023-08-07T11:08:52;17.20;99.90
51902;DHT22;37929;53.218;6.548;2023-08-07T11:11:18;17.30;99.90
51902;DHT22;37929;53.218;6.548;2023-08-07T11:13:47;17.30;99.90
51902;DHT22;37929;53.218;6.548;2023-08-07T11:16:13;17.30;99.90
51902;DHT22;37929;53.218;6.548;2023-08-07T11:18:39;17.20;99.90
51902;DHT22;37929;53.218;6.548;2023-08-07T11:21:13;17.20;99.90
51902;DHT22;37929;53.218;6.548;2023-08-07T11:23:40;17.20;99.90
51902;DHT22;37929;53.218;6.548;2023-08-07T11:26:07;17.10;99.90
51902;DHT22;37929;53.218;6.548;2023-08-07T11:28:34;17.00;99.90
51902;DHT22;37929;53.218;6.548;2023-08-07T11:31:00;16.90;99.90
51902;DHT22;37929;53.218;6.548;2023-08-07T11:33:27;16.80;99.90
51902;DHT22;37929;53.218;6.548;2023-08-07T11:35:54;16.70;99.90
51902;DHT22;37929;53.218;6.548;2023-08-07T11:38:38;16.60;99.90
51902;DHT22;37929;53.218;6.548;2023-08-07T11:41:05;16.50;99.90
51902;DHT22;37929;53.218;6.548;2023-08-07T11:43:32;16.40;99.90
51902;DHT22;37929;53.218;6.548;2023-08-07T11:46:03;16.30;99.90
51902;DHT22;37929;53.218;6.548;2023-08-07T11:48:31;16.30;99.90
51902;DHT22;37929;53.218;6.548;2023-08-07T11:50:59;16.20;99.90
51902;DHT22;37929;53.218;6.548;2023-08-07T11:53:35;16.10;99.90
51902;DHT22;37929;53.218;6.548;2023-08-07T11:56:09;16.00;99.90
51902;DHT22;37929;53.218;6.548;2023-08-07T11:58:42;16.00;99.90
51902;DHT22;37929;53.218;6.548;2023-08-07T12:01:13;16.00;99.90
51902;DHT22;37929;53.218;6.548;2023-08-07T12:03:54;16.00;99.90
51902;DHT22;37929;53.218;6.548;2023-08-07T12:06:21;16.10;99.90
51902;DHT22;37929;53.218;6.548;2023-08-07T12:08:49;16.10;99.90
51902;DHT22;37929;53.218;6.548;2023-08-07T12:11:17;16.10;99.90
51902;DHT22;37929;53.218;6.548;2023-08-07T12:13:44;16.00;99.90
51902;DHT22;37929;53.218;6.548;2023-08-07T12:16:11;15.90;99.90
51902;DHT22;37929;53.218;6.548;2023-08-07T12:18:45;15.90;99.90
51902;DHT22;37929;53.218;6.548;2023-08-07T12:21:14;15.90;99.90
51902;DHT22;37929;53.218;6.548;2023-08-07T12:23:41;15.90;99.90
51902;DHT22;37929;53.218;6.548;2023-08-07T12:26:07;15.90;99.90
51902;DHT22;37929;53.218;6.548;2023-08-07T12:28:34;15.90;99.90
51902;DHT22;37929;53.218;6.548;2023-08-07T12:31:01;15.90;99.90
51902;DHT22;37929;53.218;6.548;2023-08-07T12:33:28;15.90;99.90
51902;DHT22;37929;53.218;6.548;2023-08-07T12:35:55;16.00;99.90
51902;DHT22;37929;53.218;6.548;2023-08-07T12:38:21;16.20;99.90
51902;DHT22;37929;53.218;6.548;2023-08-07T12:40:47;16.40;99.90
51902;DHT22;37929;53.218;6.548;2023-08-07T12:43:14;16.60;99.90
51902;DHT22;37929;53.218;6.548;2023-08-07T12:45:39;16.80;99.90
51902;DHT22;37929;53.218;6.548;2023-08-07T12:48:05;17.00;99.90
51902;DHT22;37929;53.218;6.548;2023-08-07T12:50:31;17.10;99.90
51902;DHT22;37929;53.218;6.548;2023-08-07T12:52:57;17.20;99.90
51902;DHT22;37929;53.218;6.548;2023-08-07T12:55:24;17.30;99.90
51902;DHT22;37929;53.218;6.548;2023-08-07T12:57:50;17.30;99.90
51902;DHT22;37929;53.218;6.548;2023-08-07T13:00:16;17.40;99.90
51902;DHT22;37929;53.218;6.548;2023-08-07T13:02:42;17.50;99.90
51902;DHT22;37929;53.218;6.548;2023-08-07T13:05:12;17.60;99.90
51902;DHT22;37929;53.218;6.548;2023-08-07T13:07:39;17.80;99.90
51902;DHT22;37929;53.218;6.548;2023-08-07T13:10:07;17.90;99.90
51902;DHT22;37929;53.218;6.548;2023-08-07T13:12:41;18.00;99.90
51902;DHT22;37929;53.218;6.548;2023-08-07T13:15:11;18.10;99.90
51902;DHT22;37929;53.218;6.548;2023-08-07T13:17:39;17.90;99.90
51902;DHT22;37929;53.218;6.548;2023-08-07T13:20:05;17.90;99.90
51902;DHT22;37929;53.218;6.548;2023-08-07T13:22:43;17.70;99.90
51902;DHT22;37929;53.218;6.548;2023-08-07T13:25:11;17.50;99.90
51902;DHT22;37929;53.218;6.548;2023-08-07T13:27:38;17.30;99.90
51902;DHT22;37929;53.218;6.548;2023-08-07T13:30:06;17.20;99.90
51902;DHT22;37929;53.218;6.548;2023-08-07T13:32:32;17.10;99.90
51902;DHT22;37929;53.218;6.548;2023-08-07T13:35:01;17.10;99.90
51902;DHT22;37929;53.218;6.548;2023-08-07T13:37:28;17.20;99.90
51902;DHT22;37929;53.218;6.548;2023-08-07T13:39:54;17.10;99.90
51902;DHT22;37929;53.218;6.548;2023-08-07T13:42:23;17.20;99.90
51902;DHT22;37929;53.218;6.548;2023-08-07T13:44:50;17.30;99.90
51902;DHT22;37929;53.218;6.548;2023-08-07T13:47:15;17.30;99.90
51902;DHT22;37929;53.218;6.548;2023-08-07T13:49:43;17.30;99.90
51902;DHT22;37929;53.218;6.548;2023-08-07T13:52:09;17.30;99.90
51902;DHT22;37929;53.218;6.548;2023-08-07T13:54:35;17.40;99.90
51902;DHT22;37929;53.218;6.548;2023-08-07T13:57:00;17.40;99.90
51902;DHT22;37929;53.218;6.548;2023-08-07T13:59:26;17.40;99.90
51902;DHT22;37929;53.218;6.548;2023-08-07T14:01:52;17.50;99.90
51902;DHT22;37929;53.218;6.548;2023-08-07T14:04:20;17.50;99.90
51902;DHT22;37929;53.218;6.548;2023-08-07T14:06:46;17.50;99.90
51902;DHT22;37929;53.218;6.548;2023-08-07T14:09:12;17.60;99.90
51902;DHT22;37929;53.218;6.548;2023-08-07T14:11:39;17.60;99.90
51902;DHT22;37929;53.218;6.548;2023-08-07T14:14:05;17.50;99.90
51902;DHT22;37929;53.218;6.548;2023-08-07T14:16:37;17.50;99.90
51902;DHT22;37929;53.218;6.548;2023-08-07T14:19:07;17.60;99.90
51902;DHT22;37929;53.218;6.548;2023-08-07T14:21:33;17.60;99.90
51902;DHT22;37929;53.218;6.548;2023-08-07T14:23:59;17.60;99.90
51902;DHT22;37929;53.218;6.548;2023-08-07T14:26:25;17.60;99.90
51902;DHT22;37929;53.218;6.548;2023-08-07T14:28:51;17.60;99.90
51902;DHT22;37929;53.218;6.548;2023-08-07T14:31:17;17.60;99.90
51902;DHT22;37929;53.218;6.548;2023-08-07T14:33:43;17.60;99.90
51902;DHT22;37929;53.218;6.548;2023-08-07T14:36:08;17.50;99.90
51902;DHT22;37929;53.218;6.548;2023-08-07T14:38:37;17.50;99.90
51902;DHT22;37929;53.218;6.548;2023-08-07T14:41:03;17.60;99.90
51902;DHT22;37929;53.218;6.548;2023-08-07T14:43:29;17.60;99.90
51902;DHT22;37929;53.218;6.548;2023-08-07T14:45:56;17.70;99.90
51902;DHT22;37929;53.218;6.548;2023-08-07T14:48:22;17.70;99.90
51902;DHT22;37929;53.218;6.548;2023-08-07T14:50:48;17.60;99.90
51902;DHT22;37929;53.218;6.548;2023-08-07T14:53:14;17.60;99.90
51902;DHT22;37929;53.218;6.548;2023-08-07T14:55:40;17.50;99.90
51902;DHT22;37929;53.218;6.548;2023-08-07T14:58:07;17.40;99.90
51902;DHT22;37929;53.218;6.548;2023-08-07T15:00:34;17.50;99.90
51902;DHT22;37929;53.218;6.548;2023-08-07T15:03:00;17.50;99.90
51902;DHT22;37929;53.218;6.548;2023-08-07T15:05:27;17.60;99.90
51902;DHT22;37929;53.218;6.548;2023-08-07T15:07:53;17.60;99.90
51902;DHT22;37929;53.218;6.548;2023-08-07T15:10:19;17.70;99.90
51902;DHT22;37929;53.218;6.548;2023-08-07T15:12:47;17.70;99.90
51902;DHT22;37929;53.218;6.548;2023-08-07T15:15:13;17.60;99.90
51902;DHT22;37929;53.218;6.548;2023-08-07T15:17:39;17.60;99.90
51902;DHT22;37929;53.218;6.548;2023-08-07T15:20:17;17.50;99.90
51902;DHT22;37929;53.218;6.548;2023-08-07T15:22:46;17.20;99.90
51902;DHT22;37929;53.218;6.548;2023-08-07T15:25:13;17.30;99.90
51902;DHT22;37929;53.218;6.548;2023-08-07T15:27:39;17.40;99.90
51902;DHT22;37929;53.218;6.548;2023-08-07T15:30:06;17.40;99.90
51902;DHT22;37929;53.218;6.548;2023-08-07T15:32:33;17.30;99.90
51902;DHT22;37929;53.218;6.548;2023-08-07T15:34:58;17.20;99.90
51902;DHT22;37929;53.218;6.548;2023-08-07T15:37:24;17.20;99.90
51902;DHT22;37929;53.218;6.548;2023-08-07T15:39:50;17.20;99.90
51902;DHT22;37929;53.218;6.548;2023-08-07T15:42:16;17.30;99.90